Time;durP1;ratioP1;P1;durP2;ratioP2;P2;SDS_P1;SDS_P2;PMS_P1;PMS_P2;Temp;Humidity;BMP_temperature;BMP_pressure;BME280_temperature;BME280_humidity;BME280_pressure;Samples;Min_cycle;Max_cycle;Signal;HPM_P1;HPM_P2
2021/08/07 00:00:35;;;;;;;1.47;1.37;;;18.10;99.90;;;;;;5034506;28;20281;-37
2021/08/07 00:03:01;;;;;;;2.60;1.87;;;18.00;99.90;;;;;;5027497;28;20241;-37
2021/08/07 00:05:26;;;;;;;2.33;1.80;;;18.00;99.90;;;;;;5036697;28;20468;-37
2021/08/07 00:07:52;;;;;;;2.20;1.40;;;17.90;99.90;;;;;;5037909;28;20701;-37
2021/08/07 00:10:18;;;;;;;2.50;1.87;;;17.90;99.90;;;;;;5045827;28;20280;-37
2021/08/07 00:12:43;;;;;;;3.20;1.90;;;17.90;99.90;;;;;;5028575;28;20248;-37
2021/08/07 00:15:09;;;;;;;1.50;1.40;;;17.90;99.90;;;;;;5031899;28;20289;-37
2021/08/07 00:17:35;;;;;;;3.27;2.10;;;17.90;99.90;;;;;;5027307;28;20244;-37
2021/08/07 00:20:03;;;;;;;1.90;1.80;;;17.90;99.90;;;;;;5026980;28;20206;-37
2021/08/07 00:22:28;;;;;;;2.13;1.87;;;17.80;99.90;;;;;;5046377;28;20443;-37
2021/08/07 00:24:54;;;;;;;1.70;1.40;;;17.80;99.90;;;;;;5042716;28;20499;-37
2021/08/07 00:27:20;;;;;;;3.40;2.00;;;17.80;99.90;;;;;;5026852;28;20221;-37
2021/08/07 00:29:45;;;;;;;2.00;1.80;;;17.70;99.90;;;;;;5034069;28;20235;-37
2021/08/07 00:32:11;;;;;;;3.23;1.93;;;17.80;99.90;;;;;;5027856;28;20198;-37
2021/08/07 00:34:37;;;;;;;1.97;1.77;;;17.70;99.90;;;;;;5026028;28;20225;-37
2021/08/07 00:37:06;;;;;;;3.03;2.10;;;17.70;99.90;;;;;;5029176;28;20194;-37
2021/08/07 00:39:32;;;;;;;1.90;1.80;;;17.80;99.90;;;;;;5043095;28;20526;-37
2021/08/07 00:41:58;;;;;;;2.13;1.70;;;17.80;99.90;;;;;;5026860;28;20980;-37
2021/08/07 00:44:23;;;;;;;3.30;1.90;;;17.80;99.90;;;;;;5035475;28;20217;-37
2021/08/07 00:46:49;;;;;;;1.83;1.73;;;17.80;99.90;;;;;;5027513;28;20195;-37
2021/08/07 00:49:15;;;;;;;2.50;2.20;;;17.80;99.90;;;;;;5027007;28;20611;-37
2021/08/07 00:51:41;;;;;;;2.13;1.80;;;17.80;99.90;;;;;;5031872;28;20363;-37
2021/08/07 00:54:06;;;;;;;4.43;2.20;;;17.80;99.90;;;;;;5037948;28;20710;-37
2021/08/07 00:56:32;;;;;;;1.77;1.67;;;17.80;99.90;;;;;;5027655;28;20182;-37
2021/08/07 00:58:58;;;;;;;3.63;2.00;;;17.80;99.90;;;;;;5030762;28;20289;-37
2021/08/07 01:01:28;;;;;;;8.30;2.20;;;17.80;99.90;;;;;;5027133;28;20229;-38
2021/08/07 01:03:55;;;;;;;1.53;1.43;;;17.80;99.90;;;;;;5026287;28;20306;-37
2021/08/07 01:06:33;;;;;;;3.00;1.63;;;17.80;99.90;;;;;;5043149;28;20468;-37
2021/08/07 01:09:20;;;;;;;3.97;1.73;;;17.80;99.90;;;;;;5034166;28;20463;-37
2021/08/07 01:11:53;;;;;;;2.63;1.80;;;17.90;99.90;;;;;;5025524;28;20421;-37
2021/08/07 01:14:24;;;;;;;5.17;2.43;;;17.80;99.90;;;;;;5027098;28;20791;-37
2021/08/07 01:16:52;;;;;;;2.60;2.10;;;17.80;99.90;;;;;;5026455;28;20516;-37
2021/08/07 01:19:19;;;;;;;2.73;1.90;;;17.80;99.90;;;;;;5026632;28;20453;-37
2021/08/07 01:21:59;;;;;;;2.83;2.00;;;17.80;99.90;;;;;;5033268;28;20441;-37
2021/08/07 01:24:36;;;;;;;2.83;2.10;;;17.80;99.90;;;;;;5034765;28;20463;-37
2021/08/07 01:27:16;;;;;;;2.80;1.67;;;17.80;99.90;;;;;;5026412;28;20923;-37
2021/08/07 01:29:43;;;;;;;2.23;1.60;;;17.70;99.90;;;;;;5028395;28;20424;-38
2021/08/07 01:32:09;;;;;;;3.80;1.97;;;17.70;99.90;;;;;;5026395;28;20429;-37
2021/08/07 01:34:37;;;;;;;1.73;1.63;;;17.70;99.90;;;;;;5024604;28;20983;-37
2021/08/07 01:37:03;;;;;;;1.90;1.70;;;17.70;99.90;;;;;;5034635;28;20445;-37
2021/08/07 01:39:29;;;;;;;2.23;1.80;;;17.70;99.90;;;;;;5033098;28;21007;-37
2021/08/07 01:41:54;;;;;;;2.57;1.60;;;17.70;99.90;;;;;;5026044;28;20479;-38
2021/08/07 01:44:20;;;;;;;2.43;1.80;;;17.70;99.90;;;;;;5028876;28;20476;-37
2021/08/07 01:46:59;;;;;;;4.53;1.80;;;17.60;99.90;;;;;;5028043;28;20236;-37
2021/08/07 01:49:41;;;;;;;2.30;1.90;;;17.60;99.90;;;;;;5026260;28;20197;-37
2021/08/07 01:52:14;;;;;;;3.13;1.80;;;17.60;99.90;;;;;;5031483;28;20827;-36
2021/08/07 01:54:46;;;;;;;2.97;2.00;;;17.60;99.90;;;;;;5038776;28;20844;-37
2021/08/07 01:57:15;;;;;;;2.87;2.00;;;17.70;99.90;;;;;;5036016;28;20548;-37
2021/08/07 01:59:45;;;;;;;2.70;1.83;;;17.60;99.90;;;;;;5028513;28;20470;-37
2021/08/07 02:02:13;;;;;;;1.60;1.50;;;17.60;99.90;;;;;;5025515;28;20421;-37
2021/08/07 02:04:39;;;;;;;1.87;1.77;;;17.60;99.90;;;;;;5030931;28;20691;-38
2021/08/07 02:07:05;;;;;;;2.43;1.97;;;17.60;99.90;;;;;;5037303;28;20437;-37
2021/08/07 02:09:32;;;;;;;2.77;2.10;;;17.60;99.90;;;;;;5040181;28;20456;-37
2021/08/07 02:11:59;;;;;;;3.03;1.70;;;17.60;99.90;;;;;;5026606;28;20795;-37
2021/08/07 02:14:26;;;;;;;2.20;2.00;;;17.60;99.90;;;;;;5028939;28;20435;-37
2021/08/07 02:16:52;;;;;;;3.00;1.60;;;17.60;99.90;;;;;;5032369;28;20432;-37
2021/08/07 02:19:19;;;;;;;2.23;1.60;;;17.60;99.90;;;;;;5025880;28;20427;-37
2021/08/07 02:21:45;;;;;;;3.67;1.50;;;17.60;99.90;;;;;;5024694;28;20445;-37
2021/08/07 02:24:11;;;;;;;2.23;1.80;;;17.50;99.90;;;;;;5037662;28;20468;-37
2021/08/07 02:26:37;;;;;;;3.67;1.80;;;17.50;99.90;;;;;;5034582;28;20465;-37
2021/08/07 02:29:04;;;;;;;1.43;1.33;;;17.50;99.90;;;;;;5030363;28;20221;-38
2021/08/07 02:31:31;;;;;;;2.50;1.87;;;17.50;99.90;;;;;;5029076;28;20931;-37
2021/08/07 02:33:59;;;;;;;2.10;1.57;;;17.50;99.90;;;;;;5028456;28;20429;-37
2021/08/07 02:36:24;;;;;;;2.00;1.63;;;17.50;99.90;;;;;;5028273;28;20437;-37
2021/08/07 02:38:51;;;;;;;1.83;1.50;;;17.50;99.90;;;;;;5044848;28;20463;-37
2021/08/07 02:41:18;;;;;;;5.33;1.97;;;17.50;99.90;;;;;;5043664;28;20197;-37
2021/08/07 02:43:45;;;;;;;1.87;1.73;;;17.40;99.90;;;;;;5029129;28;20436;-37
2021/08/07 02:46:11;;;;;;;3.33;1.77;;;17.40;99.90;;;;;;5029988;28;20551;-37
2021/08/07 02:48:38;;;;;;;5.37;2.03;;;17.30;99.90;;;;;;5029462;28;20412;-37
2021/08/07 02:51:04;;;;;;;2.03;1.60;;;17.30;99.90;;;;;;5029631;28;20487;-37
2021/08/07 02:53:31;;;;;;;2.50;1.83;;;17.20;99.90;;;;;;5037040;28;20789;-38
2021/08/07 02:55:57;;;;;;;2.30;1.93;;;17.20;99.90;;;;;;5039141;28;20428;-37
2021/08/07 02:58:23;;;;;;;2.60;1.70;;;17.20;99.90;;;;;;5029067;28;20421;-37
2021/08/07 03:00:49;;;;;;;2.23;2.03;;;17.20;99.90;;;;;;5038833;28;20934;-37
2021/08/07 03:03:15;;;;;;;2.30;1.80;;;17.20;99.90;;;;;;5029028;28;20698;-37
2021/08/07 03:05:42;;;;;;;1.60;1.43;;;17.10;99.90;;;;;;5042943;28;20958;-38
2021/08/07 03:08:08;;;;;;;2.20;2.00;;;17.10;99.90;;;;;;5030813;28;20731;-37
2021/08/07 03:10:34;;;;;;;2.17;2.00;;;17.20;99.90;;;;;;5038438;28;20426;-37
2021/08/07 03:13:02;;;;;;;3.00;2.07;;;17.10;99.90;;;;;;5028575;28;20433;-37
2021/08/07 03:15:29;;;;;;;4.33;2.10;;;17.10;99.90;;;;;;5034024;28;20217;-37
2021/08/07 03:17:54;;;;;;;3.17;1.80;;;17.10;99.90;;;;;;5028813;28;20420;-37
2021/08/07 03:20:30;;;;;;;3.30;2.30;;;17.00;99.90;;;;;;5028195;28;20455;-37
2021/08/07 03:22:57;;;;;;;1.57;1.47;;;17.00;99.90;;;;;;5028858;28;20194;-37
2021/08/07 03:25:23;;;;;;;3.20;2.00;;;17.00;99.90;;;;;;5038607;28;20531;-37
2021/08/07 03:27:49;;;;;;;2.50;1.73;;;17.00;99.90;;;;;;5028769;28;20425;-38
2021/08/07 03:30:14;;;;;;;3.10;1.97;;;17.00;99.90;;;;;;5033511;28;20213;-37
2021/08/07 03:32:40;;;;;;;2.93;1.73;;;17.00;99.90;;;;;;5028855;28;20197;-37
2021/08/07 03:35:06;;;;;;;2.10;1.90;;;17.00;99.90;;;;;;5026349;28;20195;-37
2021/08/07 03:37:32;;;;;;;1.93;1.60;;;17.00;99.90;;;;;;5034216;28;20277;-37
2021/08/07 03:39:57;;;;;;;3.43;1.60;;;17.00;99.90;;;;;;5035642;28;20878;-37
2021/08/07 03:42:23;;;;;;;2.07;1.87;;;17.00;99.90;;;;;;5031670;28;20198;-37
2021/08/07 03:44:49;;;;;;;3.00;1.90;;;16.90;99.90;;;;;;5028643;28;20716;-37
2021/08/07 03:47:15;;;;;;;2.80;2.53;;;16.90;99.90;;;;;;5038969;28;20189;-37
2021/08/07 03:49:41;;;;;;;3.13;1.70;;;16.90;99.90;;;;;;5028294;28;20818;-37
2021/08/07 03:52:07;;;;;;;2.53;2.13;;;16.90;99.90;;;;;;5026565;28;20468;-37
2021/08/07 03:54:32;;;;;;;3.80;2.00;;;16.80;99.90;;;;;;5032776;28;20866;-37
2021/08/07 03:56:58;;;;;;;2.93;2.10;;;16.80;99.90;;;;;;5032540;28;20183;-37
2021/08/07 03:59:24;;;;;;;2.13;1.90;;;16.80;99.90;;;;;;5028040;28;20178;-37
2021/08/07 04:01:49;;;;;;;3.80;2.00;;;16.80;99.90;;;;;;5034934;28;20217;-37
2021/08/07 04:04:15;;;;;;;2.53;2.13;;;16.80;99.90;;;;;;5030304;28;20262;-37
2021/08/07 04:06:41;;;;;;;2.73;2.30;;;16.80;99.90;;;;;;5045308;28;20182;-37
2021/08/07 04:09:06;;;;;;;2.40;1.90;;;16.80;99.90;;;;;;5040206;28;20202;-37
2021/08/07 04:11:32;;;;;;;2.40;1.90;;;16.80;99.90;;;;;;5046476;28;20221;-37
2021/08/07 04:13:58;;;;;;;2.20;2.00;;;16.80;99.90;;;;;;5032758;28;20193;-37
2021/08/07 04:16:23;;;;;;;2.40;1.80;;;16.70;99.90;;;;;;5031689;28;20193;-37
2021/08/07 04:18:49;;;;;;;2.57;2.27;;;16.80;99.90;;;;;;5027689;28;20191;-37
2021/08/07 04:21:15;;;;;;;2.20;2.00;;;16.80;99.90;;;;;;5026859;28;20269;-37
2021/08/07 04:23:40;;;;;;;4.20;2.30;;;16.80;99.90;;;;;;5036039;28;20284;-37
2021/08/07 04:26:06;;;;;;;2.80;2.53;;;16.80;99.90;;;;;;5042358;28;20210;-37
2021/08/07 04:28:32;;;;;;;3.70;2.23;;;16.80;99.90;;;;;;5032965;28;20197;-37
2021/08/07 04:30:57;;;;;;;4.03;2.00;;;16.70;99.90;;;;;;5035159;28;20191;-37
2021/08/07 04:33:23;;;;;;;3.40;2.00;;;16.70;99.90;;;;;;5026925;28;20186;-38
2021/08/07 04:35:49;;;;;;;3.27;2.13;;;16.70;99.90;;;;;;5026204;28;20186;-37
2021/08/07 04:38:15;;;;;;;2.93;2.27;;;16.70;99.90;;;;;;5026907;28;20195;-37
2021/08/07 04:40:40;;;;;;;4.30;2.20;;;16.70;99.90;;;;;;5041077;28;20227;-37
2021/08/07 04:43:06;;;;;;;3.70;2.37;;;16.70;99.90;;;;;;5027388;28;20408;-37
2021/08/07 04:45:32;;;;;;;2.37;2.13;;;16.70;99.90;;;;;;5029591;28;20210;-37
2021/08/07 04:48:06;;;;;;;2.63;2.07;;;16.70;99.90;;;;;;5031155;28;20197;-37
2021/08/07 04:50:33;;;;;;;3.17;2.23;;;16.70;99.90;;;;;;5026867;28;20186;-37
2021/08/07 04:52:59;;;;;;;2.47;2.17;;;16.70;99.90;;;;;;5029221;28;20437;-37
2021/08/07 04:55:25;;;;;;;2.27;1.80;;;16.70;99.90;;;;;;5038655;28;20423;-37
2021/08/07 04:57:51;;;;;;;5.37;2.00;;;16.70;99.90;;;;;;5030364;28;20508;-37
2021/08/07 05:00:18;;;;;;;4.23;2.53;;;16.70;99.90;;;;;;5027722;28;20460;-37
2021/08/07 05:02:46;;;;;;;2.57;1.80;;;16.70;99.90;;;;;;5030494;28;20452;-37
2021/08/07 05:05:12;;;;;;;3.50;2.03;;;16.70;99.90;;;;;;5036952;28;20498;-37
2021/08/07 05:07:38;;;;;;;3.87;2.00;;;16.70;99.90;;;;;;5042994;28;20444;-37
2021/08/07 05:10:05;;;;;;;3.17;1.87;;;16.70;99.90;;;;;;5044681;28;20458;-37
2021/08/07 05:12:31;;;;;;;1.60;1.50;;;16.70;99.90;;;;;;5038442;28;20943;-37
2021/08/07 05:14:57;;;;;;;3.40;2.23;;;16.80;99.90;;;;;;5026009;28;20429;-38
2021/08/07 05:17:24;;;;;;;3.23;1.83;;;16.80;99.90;;;;;;5027096;28;20636;-37
2021/08/07 05:19:50;;;;;;;2.00;1.50;;;16.80;99.90;;;;;;5026327;28;20421;-37
2021/08/07 05:22:17;;;;;;;2.50;1.67;;;16.80;99.90;;;;;;5029483;28;20760;-37
2021/08/07 05:24:42;;;;;;;3.17;1.77;;;16.80;99.90;;;;;;5035836;28;20474;-37
2021/08/07 05:27:08;;;;;;;2.23;1.43;;;16.90;99.90;;;;;;5036847;28;20421;-37
2021/08/07 05:29:34;;;;;;;1.93;1.73;;;16.90;99.90;;;;;;5031392;28;20540;-37
2021/08/07 05:32:00;;;;;;;2.40;1.60;;;16.90;99.90;;;;;;5027651;28;20431;-37
2021/08/07 05:34:26;;;;;;;2.00;1.80;;;16.90;99.90;;;;;;5024912;28;20610;-37
2021/08/07 05:36:52;;;;;;;3.87;2.20;;;16.90;99.90;;;;;;5025605;28;20422;-37
2021/08/07 05:39:18;;;;;;;3.07;2.10;;;16.90;99.90;;;;;;5036242;28;20247;-37
2021/08/07 05:41:43;;;;;;;2.43;2.10;;;16.90;99.90;;;;;;5036994;28;20505;-37
2021/08/07 05:44:09;;;;;;;2.77;2.13;;;16.90;99.90;;;;;;5025682;28;20190;-37
2021/08/07 05:46:35;;;;;;;3.30;1.90;;;16.90;99.90;;;;;;5031795;28;20197;-37
2021/08/07 05:49:00;;;;;;;3.30;2.00;;;16.90;99.90;;;;;;5024802;28;20217;-37
2021/08/07 05:51:26;;;;;;;2.90;1.67;;;16.90;99.90;;;;;;5025151;28;20281;-37
2021/08/07 05:53:53;;;;;;;3.20;2.13;;;16.90;99.90;;;;;;5032827;28;20189;-37
2021/08/07 05:56:19;;;;;;;1.60;1.50;;;17.00;99.90;;;;;;5034050;28;20190;-37
2021/08/07 05:58:44;;;;;;;3.17;1.97;;;16.90;99.90;;;;;;5034814;28;20451;-37
2021/08/07 06:01:10;;;;;;;3.10;1.80;;;16.90;99.90;;;;;;5026953;28;20479;-37
2021/08/07 06:03:36;;;;;;;3.23;1.50;;;17.00;99.90;;;;;;5025675;28;20305;-37
2021/08/07 06:06:01;;;;;;;2.10;1.70;;;17.00;99.90;;;;;;5025610;28;20233;-37
2021/08/07 06:08:30;;;;;;;4.07;1.80;;;17.00;99.90;;;;;;5026834;28;20340;-37
2021/08/07 06:10:57;;;;;;;2.60;1.90;;;17.00;99.90;;;;;;5029526;28;20332;-37
2021/08/07 06:13:23;;;;;;;3.10;1.70;;;17.00;99.90;;;;;;5027522;28;20444;-37
2021/08/07 06:15:49;;;;;;;2.50;1.60;;;17.00;99.90;;;;;;5026121;28;20433;-37
2021/08/07 06:18:15;;;;;;;2.07;1.50;;;17.00;99.90;;;;;;5034770;28;20425;-37
2021/08/07 06:20:41;;;;;;;2.70;1.43;;;17.10;99.90;;;;;;5025041;28;20685;-38
2021/08/07 06:23:07;;;;;;;2.40;1.70;;;17.10;99.90;;;;;;5025972;28;20443;-37
2021/08/07 06:25:33;;;;;;;2.40;1.57;;;17.10;99.90;;;;;;5028506;28;20460;-37
2021/08/07 06:27:59;;;;;;;3.17;1.60;;;17.20;99.90;;;;;;5027777;28;20195;-37
2021/08/07 06:30:26;;;;;;;2.80;1.97;;;17.30;99.90;;;;;;5033112;28;20194;-37
2021/08/07 06:32:52;;;;;;;2.43;1.57;;;17.30;99.90;;;;;;5025498;28;20190;-37
2021/08/07 06:35:18;;;;;;;3.57;1.37;;;17.40;99.90;;;;;;5023875;28;20499;-37
2021/08/07 06:37:44;;;;;;;1.90;1.57;;;17.50;99.90;;;;;;5024981;28;20535;-37
2021/08/07 06:40:10;;;;;;;3.27;1.47;;;17.50;99.90;;;;;;5039010;28;20523;-37
2021/08/07 06:42:36;;;;;;;1.77;1.43;;;17.60;99.90;;;;;;5044007;28;20196;-38
2021/08/07 06:45:03;;;;;;;2.63;1.70;;;17.60;99.90;;;;;;5028180;28;21136;-37
2021/08/07 06:47:29;;;;;;;2.13;1.40;;;17.60;99.90;;;;;;5027367;28;20194;-37
2021/08/07 06:49:54;;;;;;;3.40;1.77;;;17.60;99.90;;;;;;5025585;28;20471;-37
2021/08/07 06:52:20;;;;;;;1.53;1.30;;;17.60;99.90;;;;;;5030263;28;20275;-37
2021/08/07 06:54:45;;;;;;;2.60;1.40;;;17.70;99.90;;;;;;5038502;28;20190;-37
2021/08/07 06:57:19;;;;;;;4.47;2.23;;;17.80;99.90;;;;;;5038635;28;20194;-37
2021/08/07 06:59:45;;;;;;;3.10;1.73;;;17.90;99.90;;;;;;5044911;28;20427;-37
2021/08/07 07:02:11;;;;;;;3.70;2.20;;;18.00;99.90;;;;;;5044982;28;20693;-37
2021/08/07 07:04:36;;;;;;;6.03;2.10;;;18.10;99.90;;;;;;5026489;28;20260;-37
2021/08/07 07:07:03;;;;;;;3.37;2.07;;;18.10;99.90;;;;;;5025296;28;20197;-38
2021/08/07 07:09:29;;;;;;;2.97;1.63;;;18.10;99.90;;;;;;5032955;28;20202;-37
2021/08/07 07:11:54;;;;;;;3.73;1.70;;;18.10;99.90;;;;;;5038901;28;20441;-37
2021/08/07 07:14:20;;;;;;;4.37;2.13;;;18.10;99.90;;;;;;5028637;28;20282;-37
2021/08/07 07:16:47;;;;;;;1.80;1.70;;;18.10;99.90;;;;;;5035200;28;20189;-37
2021/08/07 07:19:13;;;;;;;2.53;1.60;;;18.10;99.90;;;;;;5030400;28;20199;-38
2021/08/07 07:21:39;;;;;;;2.73;1.43;;;18.10;99.90;;;;;;5028282;28;20471;-37
2021/08/07 07:24:05;;;;;;;2.30;1.63;;;18.10;99.90;;;;;;5025443;28;20456;-37
2021/08/07 07:26:32;;;;;;;1.87;1.70;;;18.10;99.90;;;;;;5042195;28;20420;-38
2021/08/07 07:28:59;;;;;;;6.63;2.00;;;18.10;99.90;;;;;;5032286;28;20460;-38
2021/08/07 07:31:25;;;;;;;2.67;1.93;;;18.10;99.90;;;;;;5036676;28;20426;-37
2021/08/07 07:33:51;;;;;;;3.50;1.97;;;18.10;99.90;;;;;;5026513;28;20592;-37
2021/08/07 07:36:17;;;;;;;3.73;2.00;;;18.10;99.90;;;;;;5028560;28;20425;-37
2021/08/07 07:38:43;;;;;;;7.80;2.50;;;18.00;99.90;;;;;;5033073;28;20716;-37
2021/08/07 07:41:09;;;;;;;5.20;2.37;;;18.00;99.90;;;;;;5047152;28;20560;-37
2021/08/07 07:43:35;;;;;;;7.73;2.10;;;18.00;99.90;;;;;;5038418;28;20429;-37
2021/08/07 07:46:01;;;;;;;4.63;2.37;;;17.90;99.90;;;;;;5028172;28;20468;-37
2021/08/07 07:48:26;;;;;;;4.20;2.40;;;17.90;99.90;;;;;;5028903;28;20313;-37
2021/08/07 07:50:52;;;;;;;2.57;1.70;;;17.90;99.90;;;;;;5027842;28;20194;-37
2021/08/07 07:53:18;;;;;;;2.73;1.50;;;17.80;99.90;;;;;;5030295;28;20533;-37
2021/08/07 07:55:44;;;;;;;3.20;1.73;;;17.80;99.90;;;;;;5037710;28;20198;-37
2021/08/07 07:58:10;;;;;;;3.77;2.40;;;17.90;99.90;;;;;;5038025;28;20472;-36
2021/08/07 08:00:36;;;;;;;7.00;3.03;;;17.90;99.90;;;;;;5027892;28;20541;-37
2021/08/07 08:03:01;;;;;;;4.93;2.00;;;17.90;99.90;;;;;;5036711;28;20436;-36
2021/08/07 08:05:27;;;;;;;5.03;2.50;;;17.90;99.90;;;;;;5027623;28;20215;-37
2021/08/07 08:07:53;;;;;;;3.07;2.60;;;18.00;99.90;;;;;;5027434;28;20222;-36
2021/08/07 08:10:18;;;;;;;2.23;2.00;;;18.00;99.90;;;;;;5036307;28;20214;-37
2021/08/07 08:12:44;;;;;;;3.50;2.13;;;18.10;99.90;;;;;;5041608;28;20275;-37
2021/08/07 08:15:11;;;;;;;2.57;2.33;;;18.10;99.90;;;;;;5035640;28;20403;-37
2021/08/07 08:17:37;;;;;;;4.20;2.03;;;18.10;99.90;;;;;;5032198;28;20194;-37
2021/08/07 08:20:05;;;;;;;4.47;2.67;;;18.10;99.90;;;;;;5027877;28;20452;-37
2021/08/07 08:22:31;;;;;;;4.80;2.20;;;18.10;99.90;;;;;;5032547;28;20625;-37
2021/08/07 08:24:57;;;;;;;3.63;2.50;;;18.20;99.90;;;;;;5042008;28;20468;-38
2021/08/07 08:27:22;;;;;;;3.33;2.30;;;18.30;99.90;;;;;;5040379;28;20321;-37
2021/08/07 08:29:48;;;;;;;3.97;2.10;;;18.40;99.90;;;;;;5035103;28;20772;-37
2021/08/07 08:32:15;;;;;;;5.83;2.50;;;18.50;99.90;;;;;;5026485;28;20675;-37
2021/08/07 08:34:41;;;;;;;3.27;2.27;;;18.50;99.90;;;;;;5046216;28;20945;-37
2021/08/07 08:37:07;;;;;;;3.87;2.97;;;18.60;99.90;;;;;;5046917;28;20438;-37
2021/08/07 08:39:33;;;;;;;2.60;2.40;;;18.70;99.90;;;;;;5042585;28;20482;-37
2021/08/07 08:41:59;;;;;;;3.13;2.40;;;18.70;99.90;;;;;;5029915;28;21204;-37
2021/08/07 08:44:25;;;;;;;4.13;2.40;;;18.80;99.90;;;;;;5029326;28;20344;-37
2021/08/07 08:46:52;;;;;;;2.53;2.30;;;18.80;99.90;;;;;;5028412;28;20533;-37
2021/08/07 08:49:18;;;;;;;3.03;2.83;;;18.80;99.90;;;;;;5033001;28;20198;-38
2021/08/07 08:51:45;;;;;;;4.50;2.50;;;18.90;99.90;;;;;;5022417;28;20491;-37
2021/08/07 08:54:11;;;;;;;2.73;2.50;;;18.90;99.90;;;;;;5025909;28;20433;-37
2021/08/07 08:56:38;;;;;;;4.17;2.60;;;19.00;99.90;;;;;;5034043;28;20752;-37
2021/08/07 08:59:09;;;;;;;3.30;2.40;;;19.00;99.90;;;;;;5033252;28;20803;-37
2021/08/07 09:01:35;;;;;;;4.80;2.60;;;19.00;99.90;;;;;;5025272;28;20948;-37
2021/08/07 09:04:03;;;;;;;2.70;2.50;;;19.00;99.90;;;;;;5036106;28;20535;-37
2021/08/07 09:06:29;;;;;;;4.40;2.90;;;19.00;99.90;;;;;;5034676;28;20216;-37
2021/08/07 09:09:08;;;;;;;3.70;2.50;;;19.00;99.90;;;;;;5045309;28;20718;-38
2021/08/07 09:11:34;;;;;;;2.63;2.30;;;19.00;99.90;;;;;;5033059;28;20416;-38
2021/08/07 09:14:24;;;;;;;4.10;2.63;;;19.10;99.90;;;;;;5039660;28;20728;-37
2021/08/07 09:17:04;;;;;;;4.87;3.03;;;19.10;99.90;;;;;;5027003;28;20421;-38
2021/08/07 09:19:39;;;;;;;2.60;2.40;;;19.30;99.90;;;;;;5026148;28;20420;-37
2021/08/07 09:22:19;;;;;;;3.83;2.87;;;19.40;99.90;;;;;;5027444;28;20425;-38
2021/08/07 09:25:26;;;;;;;3.60;2.67;;;19.40;99.90;;;;;;5033107;28;21013;-38
2021/08/07 09:27:53;;;;;;;6.03;2.93;;;19.60;99.90;;;;;;5039262;28;20433;-38
2021/08/07 09:30:18;;;;;;;3.87;1.80;;;19.70;99.90;;;;;;5034070;28;20429;-38
2021/08/07 09:32:46;;;;;;;3.00;2.70;;;19.80;99.90;;;;;;5032740;28;20432;-37
2021/08/07 09:35:14;;;;;;;3.00;2.33;;;19.80;99.90;;;;;;5026485;28;20368;-37
2021/08/07 09:37:40;;;;;;;3.53;1.90;;;19.90;99.90;;;;;;5028719;28;20455;-37
2021/08/07 09:40:10;;;;;;;5.40;1.83;;;20.00;99.90;;;;;;5033614;28;21289;-37
2021/08/07 09:42:53;;;;;;;2.97;2.10;;;20.00;99.90;;;;;;5037524;28;20536;-39
2021/08/07 09:45:23;;;;;;;3.90;2.20;;;20.10;99.90;;;;;;5034264;28;20459;-38
2021/08/07 09:48:04;;;;;;;1.77;1.67;;;20.20;99.90;;;;;;5040188;28;20416;-37
2021/08/07 09:50:32;;;;;;;4.50;1.70;;;20.30;99.90;;;;;;5036236;28;20429;-37
2021/08/07 09:52:58;;;;;;;4.13;2.20;;;20.30;99.90;;;;;;5025267;28;20583;-37
2021/08/07 09:55:24;;;;;;;5.47;2.07;;;20.30;99.90;;;;;;5032514;28;20559;-38
2021/08/07 09:58:08;;;;;;;3.90;2.10;;;20.30;99.90;;;;;;5040606;28;20425;-37
2021/08/07 10:00:42;;;;;;;2.40;2.00;;;20.20;99.90;;;;;;5033281;28;20515;-37
2021/08/07 10:03:27;;;;;;;2.83;1.60;;;20.20;99.90;;;;;;5025850;28;20416;-37
2021/08/07 10:05:53;;;;;;;2.60;2.20;;;20.20;99.90;;;;;;5041578;28;20480;-37
2021/08/07 10:08:19;;;;;;;2.30;2.00;;;20.10;99.90;;;;;;5045652;28;20965;-37
2021/08/07 10:10:48;;;;;;;3.13;2.13;;;20.10;99.90;;;;;;5033277;28;20280;-37
2021/08/07 10:13:14;;;;;;;1.97;1.80;;;20.00;99.90;;;;;;5035434;28;20887;-38
2021/08/07 10:15:42;;;;;;;2.17;1.90;;;20.00;99.90;;;;;;5029546;28;20439;-37
2021/08/07 10:18:09;;;;;;;4.33;1.97;;;19.90;99.90;;;;;;5032622;28;20458;-37
2021/08/07 10:20:37;;;;;;;8.10;1.93;;;19.90;99.90;;;;;;5028909;28;20433;-37
2021/08/07 10:23:03;;;;;;;3.70;2.93;;;19.90;99.90;;;;;;5025384;28;20425;-39
2021/08/07 10:25:30;;;;;;;3.93;1.90;;;19.80;99.90;;;;;;5029177;28;20468;-37
2021/08/07 10:27:59;;;;;;;3.10;1.90;;;19.80;99.90;;;;;;5042875;28;20906;-38
2021/08/07 10:30:26;;;;;;;3.37;1.80;;;19.80;99.90;;;;;;5024127;28;20429;-37
2021/08/07 10:32:56;;;;;;;3.37;2.00;;;19.80;99.90;;;;;;5028877;28;20427;-38
2021/08/07 10:35:27;;;;;;;4.73;2.60;;;19.80;99.90;;;;;;5023587;28;20586;-37
2021/08/07 10:37:57;;;;;;;4.20;2.00;;;19.80;99.90;;;;;;5025636;28;20437;-38
2021/08/07 10:40:24;;;;;;;3.30;2.10;;;19.80;99.90;;;;;;5027430;28;20438;-38
2021/08/07 10:42:52;;;;;;;6.30;2.20;;;20.00;99.90;;;;;;5036984;28;20459;-37
2021/08/07 10:45:18;;;;;;;2.50;1.97;;;20.10;99.90;;;;;;5038391;28;20465;-38
2021/08/07 10:47:47;;;;;;;2.40;2.20;;;20.20;99.90;;;;;;5031912;28;20424;-38
2021/08/07 10:50:25;;;;;;;4.50;2.80;;;20.40;99.90;;;;;;5028483;28;20428;-38
2021/08/07 10:52:52;;;;;;;3.80;2.10;;;20.50;99.90;;;;;;5029272;28;20512;-38
2021/08/07 10:55:53;;;;;;;2.30;2.00;;;20.50;99.90;;;;;;5032683;28;20990;-40
2021/08/07 10:58:44;;;;;;;3.00;1.90;;;20.50;99.90;;;;;;5043601;28;20417;-37
2021/08/07 11:01:28;;;;;;;3.17;1.73;;;20.60;99.90;;;;;;5028591;28;20418;-37
2021/08/07 11:04:03;;;;;;;11.60;3.40;;;20.50;99.90;;;;;;5040249;28;20426;-37
2021/08/07 11:06:46;;;;;;;2.10;1.90;;;20.50;99.90;;;;;;5029149;28;20506;-38
2021/08/07 11:09:18;;;;;;;3.13;1.90;;;20.60;99.90;;;;;;5028207;28;20443;-38
2021/08/07 11:11:45;;;;;;;3.20;1.97;;;20.60;99.90;;;;;;5036485;28;20449;-37
2021/08/07 11:14:26;;;;;;;2.00;1.90;;;20.70;99.90;;;;;;5031812;28;20538;-37
2021/08/07 11:17:04;;;;;;;1.83;1.70;;;20.90;99.90;;;;;;5034493;28;20455;-37
2021/08/07 11:20:00;;;;;;;3.40;1.63;;;21.10;99.90;;;;;;5029212;28;20429;-38
2021/08/07 11:22:31;;;;;;;3.13;1.83;;;21.20;99.90;;;;;;5029674;28;20526;-37
2021/08/07 11:24:58;;;;;;;2.83;1.60;;;21.20;99.90;;;;;;5031724;28;20465;-38
2021/08/07 11:30:35;;;;;;;3.13;1.40;;;21.30;99.90;;;;;;5032410;28;20774;-37
2021/08/07 11:33:01;;;;;;;2.03;1.40;;;21.30;99.90;;;;;;5044312;28;20776;-37
2021/08/07 11:35:36;;;;;;;2.40;1.30;;;21.30;99.90;;;;;;5032939;28;20430;-37
2021/08/07 11:38:24;;;;;;;2.63;1.80;;;21.20;99.90;;;;;;5031415;28;20505;-38
2021/08/07 11:40:54;;;;;;;2.70;1.30;;;21.10;99.90;;;;;;5031668;28;20518;-38
2021/08/07 11:43:23;;;;;;;3.37;2.00;;;21.00;99.90;;;;;;5045625;28;20428;-37
2021/08/07 11:46:01;;;;;;;7.40;2.43;;;20.90;99.90;;;;;;5027668;28;20468;-38
2021/08/07 11:48:29;;;;;;;1.83;1.40;;;20.90;99.90;;;;;;5031953;28;20435;-38
2021/08/07 11:50:57;;;;;;;2.93;1.90;;;20.80;99.90;;;;;;5035281;28;20483;-38
2021/08/07 11:53:24;;;;;;;3.30;1.90;;;20.80;99.90;;;;;;5028743;28;20441;-37
2021/08/07 11:55:56;;;;;;;2.10;1.73;;;20.80;99.90;;;;;;5032100;28;20871;-37
2021/08/07 11:58:21;;;;;;;2.63;1.70;;;20.80;99.90;;;;;;5040532;28;20800;-37
2021/08/07 12:00:47;;;;;;;4.30;1.40;;;20.80;99.90;;;;;;5031102;28;20457;-38
2021/08/07 12:03:14;;;;;;;1.83;1.73;;;20.90;99.90;;;;;;5029888;28;20187;-37
2021/08/07 12:05:57;;;;;;;3.23;2.10;;;20.80;99.90;;;;;;5034331;28;20255;-38
2021/08/07 12:08:25;;;;;;;5.07;2.30;;;20.80;99.90;;;;;;5028841;28;20452;-37
2021/08/07 12:10:55;;;;;;;3.33;1.70;;;20.80;99.90;;;;;;5029330;28;20445;-37
2021/08/07 12:13:26;;;;;;;3.20;1.57;;;20.70;99.90;;;;;;5036435;28;20841;-37
2021/08/07 12:15:55;;;;;;;2.30;1.80;;;20.70;99.90;;;;;;5037788;28;20784;-37
2021/08/07 12:18:21;;;;;;;3.63;1.90;;;20.70;99.90;;;;;;5034285;28;20435;-38
2021/08/07 12:20:47;;;;;;;3.13;1.60;;;20.70;99.90;;;;;;5027283;28;20417;-37
2021/08/07 12:23:12;;;;;;;9.07;2.47;;;20.60;99.90;;;;;;5026435;28;20463;-37
2021/08/07 12:25:41;;;;;;;4.50;1.70;;;20.70;99.90;;;;;;5032810;28;20928;-37
2021/08/07 12:28:14;;;;;;;2.03;1.50;;;20.60;99.90;;;;;;5047467;28;20503;-37
2021/08/07 12:31:03;;;;;;;2.30;1.50;;;20.60;99.90;;;;;;5036891;28;20804;-37
2021/08/07 12:33:34;;;;;;;20.77;4.07;;;20.50;99.90;;;;;;5031454;28;20430;-37
2021/08/07 12:36:10;;;;;;;12.43;4.17;;;20.40;99.90;;;;;;5027556;28;20434;-37
2021/08/07 12:38:43;;;;;;;2.00;1.60;;;20.40;99.90;;;;;;5027659;28;20773;-37
2021/08/07 12:41:09;;;;;;;5.10;1.40;;;20.40;99.90;;;;;;5027746;28;20518;-38
2021/08/07 12:43:36;;;;;;;4.20;1.97;;;20.50;99.90;;;;;;5042053;28;20433;-38
2021/08/07 12:46:04;;;;;;;3.03;1.93;;;20.50;99.90;;;;;;5031548;28;20525;-37
2021/08/07 12:49:01;;;;;;;2.87;1.70;;;20.50;99.90;;;;;;5036135;28;20432;-38
2021/08/07 12:51:31;;;;;;;1.70;1.50;;;20.60;99.90;;;;;;5033350;28;20421;-37
2021/08/07 12:54:02;;;;;;;2.90;1.00;;;20.80;99.90;;;;;;5034764;28;20416;-37